< < Back
Terminal Aerodrome Forecast


Current Version              Previous Versions:   1  2  3  4  5  6  7  8  9  

Terminal Aerodrome Forecast

994
FTUS42 KTAE 271738
TAFVLD
TAF
KVLD 271738Z 2718/2818 14004KT P6SM VCTS SCT025 BKN040CB
     FM280100 10003KT P6SM BKN250
      TEMPO 2811/2814 4SM BR BKN010=

Latest METAR

599
SAUS70 KWBC 271700 RRK
MTRVLD
METAR KVLD 271653Z 14005KT 10SM SCT030 BKN038 28/21 A3022 RMK AO2 SLP238
T02780211


USA.gov is the U.S. government's official web portal to all federal, state and local government web resources and services.